Time;durP1;ratioP1;P1;durP2;ratioP2;P2;SDS_P1;SDS_P2;PMS_P1;PMS_P2;Temp;Humidity;BMP_temperature;BMP_pressure;BME280_temperature;BME280_humidity;BME280_pressure;Samples;Min_cycle;Max_cycle;Signal;HPM_P1;HPM_P2
2022/07/16 00:01:22;;;;;;;4.00;2.88;;;;;;;12.61;98.16;101325.03;695678;28;4536;-43
2022/07/16 00:01:36;;;;;;;5.28;3.00;;;;;;;12.73;97.36;101322.38;699653;28;1424;-43
2022/07/16 00:01:56;;;;;;;5.10;3.10;;;;;;;12.72;97.88;101322.41;696290;28;4929;-42
2022/07/16 00:02:16;;;;;;;4.93;3.00;;;;;;;12.71;97.52;101328.50;695569;28;1361;-43
2022/07/16 00:02:38;;;;;;;5.43;3.20;;;;;;;12.70;97.69;101322.41;697084;28;1492;-43
2022/07/16 00:02:58;;;;;;;4.57;3.17;;;;;;;12.67;98.18;101324.16;697177;28;1222;-43
2022/07/16 00:03:18;;;;;;;5.18;3.25;;;;;;;12.62;97.55;101329.44;696582;28;1510;-43
2022/07/16 00:03:39;;;;;;;4.73;3.07;;;;;;;12.65;96.78;101320.69;697726;28;1670;-43
2022/07/16 00:04:00;;;;;;;4.60;3.10;;;;;;;12.67;97.12;101322.44;698257;28;1253;-45
2022/07/16 00:04:21;;;;;;;5.65;3.30;;;;;;;12.67;97.52;101329.41;700970;28;1277;-43
2022/07/16 00:04:41;;;;;;;4.25;2.83;;;;;;;12.67;97.77;101327.66;700523;28;1644;-43
2022/07/16 00:05:02;;;;;;;5.37;3.10;;;;;;;12.70;97.46;101326.78;697464;28;4641;-43
2022/07/16 00:05:22;;;;;;;5.10;3.10;;;;;;;12.73;96.79;101322.38;698739;28;1269;-43
2022/07/16 00:05:43;;;;;;;4.80;2.90;;;;;;;12.77;95.83;101321.50;700616;28;1428;-43
2022/07/16 00:06:03;;;;;;;4.10;2.90;;;;;;;12.83;94.73;101325.84;700708;28;1480;-44
2022/07/16 00:06:25;;;;;;;4.57;3.20;;;;;;;12.84;96.07;101325.00;697824;28;1150;-45
2022/07/16 00:06:46;;;;;;;4.82;3.13;;;;;;;12.80;96.80;101323.25;699157;28;1973;-43
2022/07/16 00:07:06;;;;;;;5.10;2.97;;;;;;;12.77;97.07;101323.28;698100;28;1253;-42
2022/07/16 00:07:26;;;;;;;5.43;3.00;;;;;;;12.75;96.95;101330.25;695892;28;1648;-42
2022/07/16 00:07:47;;;;;;;5.18;3.10;;;;;;;12.74;97.33;101332.00;694882;28;4504;-42
2022/07/16 00:08:07;;;;;;;4.47;3.10;;;;;;;12.73;97.50;101318.91;695440;28;1328;-43
2022/07/16 00:08:28;;;;;;;4.88;3.00;;;;;;;12.71;98.05;101321.53;697315;28;1186;-43
2022/07/16 00:08:48;;;;;;;5.27;3.30;;;;;;;12.67;97.85;101327.66;695685;28;1345;-42
2022/07/16 00:09:10;;;;;;;5.38;3.00;;;;;;;12.65;98.16;101324.16;696517;28;1202;-43
2022/07/16 00:09:30;;;;;;;5.55;3.10;;;;;;;12.64;98.22;101326.78;696527;28;1142;-43
2022/07/16 00:09:51;;;;;;;5.43;3.10;;;;;;;12.60;98.05;101321.56;696751;28;1155;-43
2022/07/16 00:10:11;;;;;;;5.05;2.90;;;;;;;12.63;98.02;101325.03;696154;28;1601;-45
2022/07/16 00:10:32;;;;;;;5.23;2.90;;;;;;;12.59;98.76;101329.44;696991;28;1345;-43
2022/07/16 00:10:52;;;;;;;5.20;3.10;;;;;;;12.53;98.88;101325.09;696011;28;4492;-43
2022/07/16 00:11:12;;;;;;;4.47;2.88;;;;;;;12.51;98.63;101324.19;696128;28;1253;-43
2022/07/16 00:11:33;;;;;;;4.57;2.93;;;;;;;12.50;98.62;101325.09;695628;28;1100;-43
2022/07/16 00:11:53;;;;;;;4.65;2.95;;;;;;;12.49;98.89;101320.72;695516;28;1329;-44
2022/07/16 00:12:14;;;;;;;4.23;2.77;;;;;;;12.49;98.51;101325.97;695964;28;1348;-43
2022/07/16 00:12:34;;;;;;;5.00;2.90;;;;;;;12.52;97.36;101325.94;696310;28;1272;-43
2022/07/16 00:12:55;;;;;;;6.57;3.20;;;;;;;12.59;97.63;101321.56;695975;28;977;-43
2022/07/16 00:13:15;;;;;;;5.55;3.20;;;;;;;12.71;97.03;101324.16;695919;28;1275;-44
2022/07/16 00:13:39;;;;;;;5.70;3.20;;;;;;;12.76;97.11;101324.13;699087;28;1240;-43
2022/07/16 00:14:00;;;;;;;4.60;2.80;;;;;;;12.78;96.77;101322.41;697065;28;4710;-43
2022/07/16 00:14:20;;;;;;;4.37;2.77;;;;;;;12.78;96.89;101320.63;698795;28;1162;-43
2022/07/16 00:14:41;;;;;;;4.88;2.90;;;;;;;12.80;97.25;101325.88;698384;28;1828;-44
2022/07/16 00:15:03;;;;;;;5.07;2.97;;;;;;;12.77;97.09;101329.38;698714;28;1172;-46
2022/07/16 00:15:23;;;;;;;5.25;3.00;;;;;;;12.77;96.33;101318.88;698102;28;1257;-44
2022/07/16 00:15:44;;;;;;;5.00;3.00;;;;;;;12.78;96.36;101325.03;698620;28;1119;-43
2022/07/16 00:16:04;;;;;;;5.27;3.10;;;;;;;12.86;95.64;101327.59;698458;28;1217;-43
2022/07/16 00:16:25;;;;;;;4.95;2.80;;;;;;;12.85;96.02;101320.59;698379;28;1589;-44
2022/07/16 00:16:46;;;;;;;5.13;2.77;;;;;;;12.83;96.27;101327.63;699109;28;4796;-43
2022/07/16 00:17:06;;;;;;;5.40;2.90;;;;;;;12.83;95.69;101327.63;699077;28;1158;-43
2022/07/16 00:17:27;;;;;;;5.22;2.90;;;;;;;12.84;95.64;101325.00;698874;28;1706;-45
2022/07/16 00:17:47;;;;;;;4.63;2.77;;;;;;;12.77;96.95;101329.38;698925;28;1027;-43
2022/07/16 00:19:26;;;;;;;7.93;3.13;;;;;;;12.68;96.35;101325.91;697629;28;1194;-44
2022/07/16 00:19:46;;;;;;;7.10;3.10;;;;;;;12.75;96.50;101325.00;698866;28;4579;-44
2022/07/16 00:20:07;;;;;;;5.30;2.77;;;;;;;12.76;97.19;101324.13;696347;28;1621;-43
2022/07/16 00:20:28;;;;;;;4.65;2.80;;;;;;;12.71;97.65;101323.28;696170;28;1170;-43
2022/07/16 00:20:48;;;;;;;4.97;2.70;;;;;;;12.66;97.58;101320.66;696844;28;1380;-43
2022/07/16 00:21:09;;;;;;;4.60;2.60;;;;;;;12.67;96.51;101327.66;695958;28;1181;-43
2022/07/16 00:21:29;;;;;;;4.10;2.60;;;;;;;12.72;95.94;101318.03;696866;28;1292;-44
2022/07/16 00:21:52;;;;;;;4.20;2.60;;;;;;;12.73;96.43;101319.78;696929;28;1286;-43
2022/07/16 00:22:13;;;;;;;5.70;2.85;;;;;;;12.76;96.28;101327.63;695934;28;2093;-43
2022/07/16 00:22:33;;;;;;;5.47;2.70;;;;;;;12.75;97.09;101331.16;696058;28;1402;-43
2022/07/16 00:22:53;;;;;;;4.70;2.60;;;;;;;12.75;96.23;101325.91;694491;28;4354;-44
2022/07/16 00:23:14;;;;;;;4.93;2.60;;;;;;;12.70;96.98;101326.78;694943;28;1384;-44
2022/07/16 00:23:35;;;;;;;5.03;2.63;;;;;;;12.65;96.26;101331.16;695732;28;1322;-44
2022/07/16 00:23:55;;;;;;;5.00;2.57;;;;;;;12.60;96.91;101326.81;695490;28;1337;-43
2022/07/16 00:24:16;;;;;;;4.35;2.70;;;;;;;12.58;96.57;101328.53;697593;28;1396;-43
2022/07/16 00:24:37;;;;;;;4.50;2.70;;;;;;;12.60;96.74;101326.81;699740;28;3508;-44
2022/07/16 00:24:57;;;;;;;4.50;2.60;;;;;;;12.60;97.31;101326.81;699850;28;1475;-43
2022/07/16 00:25:17;;;;;;;5.65;3.00;;;;;;;12.56;98.04;101329.47;699735;28;1589;-43
2022/07/16 00:25:38;;;;;;;5.90;2.93;;;;;;;12.54;97.72;101332.06;699956;28;1564;-43
2022/07/16 00:25:58;;;;;;;4.57;2.60;;;;;;;12.58;98.03;101339.03;696193;28;5044;-43
2022/07/16 00:26:19;;;;;;;5.00;2.60;;;;;;;12.68;96.26;101328.53;695241;28;1131;-43
2022/07/16 00:26:40;;;;;;;3.90;2.47;;;;;;;12.69;96.92;101330.28;697312;28;1442;-44
2022/07/16 00:27:01;;;;;;;3.90;2.60;;;;;;;12.71;97.15;101331.13;696971;28;1894;-42
2022/07/16 00:27:21;;;;;;;4.60;2.80;;;;;;;12.59;97.75;101338.16;691561;28;1690;-44
2022/07/16 00:27:42;;;;;;;4.10;2.57;;;;;;;12.54;97.90;101332.06;693396;28;1072;-43
2022/07/16 00:28:02;;;;;;;5.25;2.80;;;;;;;12.55;96.59;101333.81;695684;28;1171;-43
2022/07/16 00:28:23;;;;;;;4.30;2.70;;;;;;;12.56;97.89;101334.69;695268;28;1419;-44
2022/07/16 00:28:43;;;;;;;4.73;2.77;;;;;;;12.52;98.25;101332.97;695807;28;1155;-43
2022/07/16 00:29:04;;;;;;;5.65;3.00;;;;;;;12.50;98.72;101334.69;696666;28;4236;-43
2022/07/16 00:29:25;;;;;;;5.23;2.87;;;;;;;12.47;99.20;101335.56;698535;28;1174;-43
2022/07/16 00:29:45;;;;;;;4.85;2.70;;;;;;;12.47;98.72;101335.56;698944;28;1206;-43
2022/07/16 00:30:06;;;;;;;5.27;2.50;;;;;;;12.46;98.43;101333.84;698047;28;1760;-43
2022/07/16 00:30:27;;;;;;;5.43;2.50;;;;;;;12.43;98.89;101334.72;699140;28;1233;-43
2022/07/16 00:30:48;;;;;;;4.57;2.80;;;;;;;12.48;98.78;101333.84;699327;28;1201;-43
2022/07/16 00:31:08;;;;;;;4.30;2.63;;;;;;;12.51;98.32;101342.56;697708;28;1271;-43
2022/07/16 00:31:29;;;;;;;5.20;2.60;;;;;;;12.51;98.44;101337.31;698079;28;1201;-42
2022/07/16 00:31:50;;;;;;;5.18;2.50;;;;;;;12.48;98.24;101334.69;695337;28;4600;-43
2022/07/16 00:32:11;;;;;;;4.47;2.70;;;;;;;12.49;98.24;101341.69;695641;28;5004;-43
2022/07/16 00:32:31;;;;;;;5.20;2.70;;;;;;;12.50;98.25;101332.06;696338;28;1339;-43
2022/07/16 00:32:51;;;;;;;5.10;2.85;;;;;;;12.47;98.44;101337.34;691862;28;1731;-43
2022/07/16 00:33:12;;;;;;;5.40;2.60;;;;;;;12.46;98.62;101338.19;693047;28;1318;-43
2022/07/16 00:33:32;;;;;;;4.63;2.40;;;;;;;12.45;98.46;101337.34;693047;28;1322;-44
2022/07/16 00:33:53;;;;;;;4.20;2.60;;;;;;;12.43;98.39;101334.72;693255;28;1428;-43
2022/07/16 00:34:14;;;;;;;4.25;2.50;;;;;;;12.46;98.07;101338.19;693155;28;1251;-42
2022/07/16 00:34:35;;;;;;;4.07;2.42;;;;;;;12.46;98.13;101331.22;693095;28;1339;-44
2022/07/16 00:34:55;;;;;;;4.57;2.20;;;;;;;12.50;97.44;101332.06;690638;28;4537;-43
2022/07/16 00:35:16;;;;;;;5.23;2.30;;;;;;;12.56;96.64;101329.47;691960;28;1295;-45
2022/07/16 00:35:36;;;;;;;5.23;2.30;;;;;;;12.62;96.44;101333.81;690449;28;1548;-42
2022/07/16 00:35:56;;;;;;;4.97;2.20;;;;;;;12.66;96.95;101332.94;690653;28;1943;-45
2022/07/16 00:36:17;;;;;;;4.07;2.22;;;;;;;12.70;95.95;101338.16;690831;28;1349;-43
2022/07/16 00:36:39;;;;;;;5.00;2.40;;;;;;;12.79;94.80;101337.25;691611;28;1484;-43
2022/07/16 00:36:59;;;;;;;3.70;2.33;;;;;;;12.84;94.27;101329.38;695597;28;1217;-43
2022/07/16 00:37:20;;;;;;;4.03;2.30;;;;;;;12.87;94.91;101330.22;696013;28;1579;-43
2022/07/16 00:37:40;;;;;;;4.70;2.30;;;;;;;12.88;94.67;101329.34;696542;28;1297;-42
2022/07/16 00:38:01;;;;;;;4.13;2.40;;;;;;;12.89;94.16;101330.19;696122;28;4544;-43
2022/07/16 00:38:21;;;;;;;4.83;2.40;;;;;;;12.87;94.91;101326.72;695811;28;1804;-46
2022/07/16 00:38:41;;;;;;;4.23;2.33;;;;;;;12.84;95.37;101329.38;696880;28;1210;-43
2022/07/16 00:39:03;;;;;;;3.03;2.07;;;;;;;12.87;94.59;101324.97;693938;28;1501;-43
2022/07/16 00:39:24;;;;;;;3.95;2.30;;;;;;;12.86;95.69;101328.50;694136;28;1247;-43
2022/07/16 00:39:44;;;;;;;3.55;2.38;;;;;;;12.78;96.46;101328.50;691112;28;1243;-44
2022/07/16 00:40:06;;;;;;;4.00;2.47;;;;;;;12.69;96.87;101331.16;690946;28;1451;-44
2022/07/16 00:40:26;;;;;;;4.15;2.30;;;;;;;12.67;95.78;101324.16;691938;28;1360;-43
2022/07/16 00:40:47;;;;;;;4.23;2.30;;;;;;;12.69;95.71;101331.16;692779;28;4449;-43
2022/07/16 00:41:16;;;;;;;4.65;2.20;;;;;;;12.68;95.88;101329.44;695205;28;1932;-43
2022/07/16 00:41:38;;;;;;;5.50;2.35;;;;;;;12.65;96.02;101325.94;696753;28;1335;-43
2022/07/16 00:41:58;;;;;;;5.15;2.30;;;;;;;12.67;95.91;101326.78;695202;28;1447;-43
2022/07/16 00:42:19;;;;;;;4.53;2.28;;;;;;;12.69;95.67;101327.66;695268;28;1567;-43
2022/07/16 00:42:39;;;;;;;5.33;2.27;;;;;;;12.68;95.99;101328.53;696539;28;1495;-42
2022/07/16 00:43:01;;;;;;;3.80;2.27;;;;;;;12.68;96.44;101326.81;695166;28;1126;-43
2022/07/16 00:43:21;;;;;;;3.40;2.10;;;;;;;12.68;96.44;101328.53;698056;28;1198;-44
2022/07/16 00:43:47;;;;;;;3.97;2.27;;;;;;;12.66;96.76;101325.06;696081;28;1551;-43
2022/07/16 00:44:11;;;;;;;4.22;2.40;;;;;;;12.58;97.55;101331.16;697848;28;4772;-43
2022/07/16 00:44:31;;;;;;;4.70;2.30;;;;;;;12.56;97.40;101325.06;697510;28;1392;-43
2022/07/16 00:44:52;;;;;;;4.05;2.47;;;;;;;12.56;97.28;101326.84;699564;28;1340;-43
2022/07/16 00:45:12;;;;;;;4.63;2.50;;;;;;;12.56;97.75;101329.47;699142;28;1379;-43
2022/07/16 00:45:32;;;;;;;3.77;2.23;;;;;;;12.56;96.63;101329.47;695802;28;1292;-43
2022/07/16 00:45:53;;;;;;;3.73;2.30;;;;;;;12.48;97.83;101331.22;696783;28;1357;-42
2022/07/16 00:46:14;;;;;;;4.40;2.30;;;;;;;12.45;97.01;101329.47;695875;28;1322;-43
2022/07/16 00:46:36;;;;;;;4.68;2.20;;;;;;;12.48;96.08;101324.22;695626;28;1262;-44
2022/07/16 00:46:57;;;;;;;3.78;2.15;;;;;;;12.52;97.20;101327.72;696959;28;4511;-44
2022/07/16 00:47:17;;;;;;;3.97;2.20;;;;;;;12.52;96.79;101323.34;696424;28;1605;-43
2022/07/16 00:47:37;;;;;;;3.97;2.30;;;;;;;12.54;96.99;101323.31;695555;28;1476;-43
2022/07/16 00:47:58;;;;;;;4.63;2.33;;;;;;;12.52;97.33;101320.72;695653;28;1500;-42
2022/07/16 00:48:18;;;;;;;4.70;2.40;;;;;;;12.54;96.48;101321.56;694526;28;1967;-42
2022/07/16 00:48:39;;;;;;;4.50;2.40;;;;;;;12.56;95.95;101327.69;693215;28;1492;-43
2022/07/16 00:48:59;;;;;;;4.40;2.20;;;;;;;12.51;96.76;101326.81;695167;28;1602;-43
2022/07/16 00:49:20;;;;;;;3.27;2.03;;;;;;;12.44;97.87;101325.09;692553;28;1289;-43
2022/07/16 00:49:40;;;;;;;4.75;2.17;;;;;;;12.36;98.42;101324.22;698981;28;1384;-43
2022/07/16 00:50:01;;;;;;;4.10;2.30;;;;;;;12.34;98.27;101328.63;693504;28;4583;-43
2022/07/16 00:50:21;;;;;;;3.97;2.30;;;;;;;12.33;97.91;101326.88;695153;28;1211;-44
2022/07/16 00:50:42;;;;;;;4.10;2.37;;;;;;;12.34;97.13;101323.38;696573;28;1195;-43
2022/07/16 00:51:02;;;;;;;4.50;2.20;;;;;;;12.35;97.55;101327.72;695385;28;1365;-43
2022/07/16 00:51:23;;;;;;;3.70;2.10;;;;;;;12.33;97.73;101322.50;695575;28;892;-43
2022/07/16 00:51:50;;;;;;;3.85;2.30;;;;;;;12.31;98.05;101324.25;692325;28;1396;-43
2022/07/16 00:52:11;;;;;;;4.05;2.42;;;;;;;12.27;98.91;101327.75;695698;28;1122;-43
2022/07/16 00:52:35;;;;;;;4.47;2.70;;;;;;;12.26;98.84;101328.63;696880;28;1404;-43
2022/07/16 00:52:57;;;;;;;4.05;2.58;;;;;;;12.23;98.90;101326.88;696519;28;4540;-43
2022/07/16 00:53:17;;;;;;;4.57;2.53;;;;;;;12.24;98.93;101327.75;693185;28;1393;-43
2022/07/16 00:53:38;;;;;;;4.03;2.40;;;;;;;12.22;99.86;101330.34;695968;28;1368;-43
2022/07/16 00:53:59;;;;;;;3.55;2.40;;;;;;;12.21;100.00;101331.25;695564;28;1647;-45
2022/07/16 00:54:20;;;;;;;3.63;2.35;;;;;;;12.22;99.76;101327.72;695963;28;1381;-43
2022/07/16 00:54:41;;;;;;;5.13;2.60;;;;;;;12.23;99.63;101326.88;695351;28;1210;-42
2022/07/16 00:55:02;;;;;;;4.67;2.47;;;;;;;12.25;99.11;101329.47;694795;28;1205;-43
2022/07/16 00:55:22;;;;;;;4.20;2.33;;;;;;;12.25;99.39;101325.13;695970;28;1182;-43
2022/07/16 00:55:43;;;;;;;4.77;2.60;;;;;;;12.26;99.06;101328.63;694886;28;1296;-43
2022/07/16 00:56:09;;;;;;;4.95;2.75;;;;;;;12.25;99.87;101325.13;692651;28;4377;-44
2022/07/16 00:56:30;;;;;;;4.75;2.75;;;;;;;12.25;99.27;101322.50;694386;28;1184;-45
2022/07/16 00:56:50;;;;;;;4.00;2.40;;;;;;;12.27;99.07;101333.84;697847;28;1214;-43
2022/07/16 00:57:11;;;;;;;4.80;2.60;;;;;;;12.26;99.71;101329.47;696105;28;1233;-44
2022/07/16 00:57:31;;;;;;;4.80;2.60;;;;;;;12.23;100.00;101332.09;694174;28;1886;-43
2022/07/16 00:57:53;;;;;;;4.80;2.50;;;;;;;12.25;100.00;101330.38;694382;28;1136;-43
2022/07/16 00:58:15;;;;;;;4.88;2.40;;;;;;;12.24;100.00;101328.63;695816;28;1558;-45
2022/07/16 00:58:39;;;;;;;4.50;2.35;;;;;;;12.25;99.83;101322.50;695714;28;1527;-43
2022/07/16 00:59:00;;;;;;;4.88;2.40;;;;;;;12.27;99.82;101323.38;690085;28;5038;-43
2022/07/16 00:59:21;;;;;;;3.65;2.40;;;;;;;12.26;99.66;101328.63;689002;28;1407;-43
2022/07/16 00:59:42;;;;;;;5.53;2.60;;;;;;;12.25;100.00;101319.91;684825;28;1268;-43
2022/07/16 01:00:08;;;;;;;6.35;2.60;;;;;;;12.26;99.92;101326.00;686472;28;1613;-43
2022/07/16 01:00:31;;;;;;;6.03;2.60;;;;;;;12.29;99.08;101333.00;688141;28;1149;-42
2022/07/16 01:00:52;;;;;;;5.60;2.40;;;;;;;12.31;99.18;101331.22;686997;28;982;-42
2022/07/16 01:01:13;;;;;;;3.90;2.43;;;;;;;12.32;99.50;101325.97;685775;28;1544;-44
2022/07/16 01:01:34;;;;;;;4.00;2.40;;;;;;;12.34;99.20;101324.25;691795;28;1352;-42
2022/07/16 01:01:54;;;;;;;4.80;2.28;;;;;;;12.36;99.15;101324.22;694337;28;4276;-42
2022/07/16 01:02:15;;;;;;;3.60;2.30;;;;;;;12.32;99.77;101325.97;693832;28;1226;-43
2022/07/16 01:02:35;;;;;;;3.75;2.30;;;;;;;12.29;99.79;101320.75;690846;28;1723;-42
2022/07/16 01:02:57;;;;;;;4.97;2.70;;;;;;;12.31;98.90;101323.34;693850;28;1216;-43
2022/07/16 01:03:18;;;;;;;4.35;2.42;;;;;;;12.32;98.82;101318.09;693381;28;1519;-42
2022/07/16 01:03:40;;;;;;;4.25;2.30;;;;;;;12.34;98.87;101324.25;694038;28;1643;-43
2022/07/16 01:04:04;;;;;;;3.58;2.22;;;;;;;12.34;99.39;101326.84;693639;28;1314;-42
2022/07/16 01:04:25;;;;;;;4.32;2.30;;;;;;;12.41;97.25;101320.72;695143;28;1631;-44
2022/07/16 01:04:47;;;;;;;4.27;2.27;;;;;;;12.41;98.68;101323.34;696475;28;4392;-44
2022/07/16 01:05:08;;;;;;;4.60;2.42;;;;;;;12.31;100.00;101329.50;695626;28;1305;-42
2022/07/16 01:05:28;;;;;;;6.20;2.55;;;;;;;12.30;100.00;101326.88;695750;28;1187;-43
2022/07/16 01:05:49;;;;;;;4.87;2.50;;;;;;;12.31;100.00;101328.59;694326;28;1170;-43
2022/07/16 01:06:10;;;;;;;6.47;2.50;;;;;;;12.26;99.96;101329.47;694683;28;1258;-42
2022/07/16 01:06:31;;;;;;;5.40;2.35;;;;;;;12.25;99.48;101321.63;695393;28;1619;-43
2022/07/16 01:06:53;;;;;;;4.72;2.50;;;;;;;12.25;99.72;101330.38;695345;28;1965;-43
2022/07/16 01:07:14;;;;;;;5.70;2.60;;;;;;;12.27;98.96;101319.88;695701;28;940;-45
2022/07/16 01:07:35;;;;;;;6.00;2.42;;;;;;;12.29;99.29;101322.50;696040;28;1639;-44
2022/07/16 01:07:56;;;;;;;5.07;2.33;;;;;;;12.29;99.61;101320.75;695475;28;4614;-43
2022/07/16 01:08:17;;;;;;;4.15;2.20;;;;;;;12.31;99.67;101326.88;695526;28;1483;-43
2022/07/16 01:08:40;;;;;;;4.23;2.33;;;;;;;12.31;99.57;101324.25;697109;28;1376;-42
2022/07/16 01:09:03;;;;;;;4.63;2.40;;;;;;;12.26;100.00;101329.47;692319;28;1455;-43
2022/07/16 01:09:26;;;;;;;4.30;2.50;;;;;;;12.19;100.00;101329.50;690726;28;1278;-43
2022/07/16 01:09:47;;;;;;;4.68;2.47;;;;;;;12.12;100.00;101326.00;687617;28;1192;-43
2022/07/16 01:10:08;;;;;;;4.68;2.45;;;;;;;12.06;100.00;101328.66;686862;28;1792;-45
2022/07/16 01:10:29;;;;;;;4.22;2.50;;;;;;;12.01;100.00;101325.16;688338;28;1254;-43
2022/07/16 01:10:50;;;;;;;4.35;2.58;;;;;;;11.97;100.00;101332.13;689195;28;4289;-43
2022/07/16 01:11:12;;;;;;;4.13;2.50;;;;;;;11.96;100.00;101332.13;689959;28;1387;-42
2022/07/16 01:11:33;;;;;;;3.75;2.50;;;;;;;11.92;100.00;101337.34;690581;28;1488;-42
2022/07/16 01:11:54;;;;;;;4.32;2.50;;;;;;;11.92;100.00;101331.19;693101;28;1212;-42
2022/07/16 01:12:16;;;;;;;4.53;2.57;;;;;;;11.93;100.00;101338.19;692155;28;1472;-43
2022/07/16 01:12:37;;;;;;;4.32;2.58;;;;;;;11.98;100.00;101320.78;693657;28;1408;-42
2022/07/16 01:12:59;;;;;;;4.50;2.50;;;;;;;12.08;100.00;101329.50;693403;28;1492;-42
2022/07/16 01:13:21;;;;;;;4.13;2.60;;;;;;;12.12;100.00;101327.78;696450;28;1259;-42
2022/07/16 01:13:43;;;;;;;5.20;2.60;;;;;;;12.14;100.00;101326.00;695130;28;1210;-44
2022/07/16 01:14:06;;;;;;;5.00;2.53;;;;;;;12.16;100.00;101327.75;698926;28;4508;-43
2022/07/16 01:14:27;;;;;;;3.95;2.42;;;;;;;12.16;100.00;101329.50;698945;28;1754;-42
2022/07/16 01:14:48;;;;;;;4.95;2.60;;;;;;;12.14;100.00;101326.88;699432;28;1126;-42
2022/07/16 01:15:08;;;;;;;5.37;2.70;;;;;;;12.10;100.00;101332.97;700108;28;1194;-43
2022/07/16 01:15:29;;;;;;;4.60;2.50;;;;;;;12.08;100.00;101324.25;695781;28;1178;-42
2022/07/16 01:15:49;;;;;;;4.20;2.55;;;;;;;12.08;100.00;101332.13;695108;28;1234;-44
2022/07/16 01:16:11;;;;;;;4.67;2.50;;;;;;;12.08;100.00;101332.13;695893;28;1375;-42
2022/07/16 01:16:31;;;;;;;5.13;2.50;;;;;;;12.12;99.98;101327.78;695828;28;1436;-43
2022/07/16 01:16:51;;;;;;;5.13;2.30;;;;;;;12.16;99.91;101329.50;695090;28;4471;-43
2022/07/16 01:17:12;;;;;;;4.47;2.30;;;;;;;12.16;100.00;101333.00;692461;28;2243;-43
2022/07/16 01:17:33;;;;;;;4.32;2.38;;;;;;;12.12;100.00;101333.88;694299;28;1345;-45
2022/07/16 01:17:53;;;;;;;4.40;2.55;;;;;;;12.08;100.00;101330.38;693491;28;1031;-42
2022/07/16 01:18:14;;;;;;;5.20;2.50;;;;;;;12.10;100.00;101332.97;693088;28;1360;-45
2022/07/16 01:18:36;;;;;;;4.43;2.50;;;;;;;12.12;100.00;101333.88;693413;28;1485;-43
2022/07/16 01:18:57;;;;;;;4.18;2.60;;;;;;;12.09;100.00;101332.13;693564;28;1499;-44
2022/07/16 01:19:17;;;;;;;4.43;2.45;;;;;;;12.06;100.00;101336.50;690912;28;1370;-43
2022/07/16 01:19:38;;;;;;;4.38;2.40;;;;;;;12.00;100.00;101323.38;694123;28;1560;-43
2022/07/16 01:19:58;;;;;;;4.93;2.43;;;;;;;12.00;100.00;101333.88;693663;28;4573;-42
2022/07/16 01:20:19;;;;;;;5.57;2.47;;;;;;;12.00;100.00;101336.50;695833;28;1524;-44
2022/07/16 01:20:40;;;;;;;4.82;2.53;;;;;;;11.93;100.00;101333.84;695024;28;3720;-44
2022/07/16 01:21:01;;;;;;;4.30;2.53;;;;;;;11.89;100.00;101332.09;694453;28;1148;-42
2022/07/16 01:21:21;;;;;;;4.65;2.53;;;;;;;11.87;100.00;101333.84;690856;28;1399;-42
2022/07/16 01:21:43;;;;;;;3.80;2.60;;;;;;;11.85;100.00;101330.34;691444;28;1218;-43
2022/07/16 01:22:03;;;;;;;4.35;2.60;;;;;;;11.92;100.00;101333.81;689141;28;1390;-43
2022/07/16 01:22:25;;;;;;;4.50;2.65;;;;;;;11.95;100.00;101335.59;690072;28;1290;-44
2022/07/16 01:22:46;;;;;;;4.93;2.60;;;;;;;11.91;100.00;101327.72;692285;28;4728;-42
2022/07/16 01:23:06;;;;;;;4.75;2.60;;;;;;;11.86;100.00;101332.06;695566;28;1181;-43
2022/07/16 01:23:27;;;;;;;4.43;2.70;;;;;;;11.84;100.00;101325.97;695971;28;1286;-44
2022/07/16 01:23:49;;;;;;;4.90;2.50;;;;;;;11.90;100.00;101328.59;694916;28;1155;-44
2022/07/16 01:24:09;;;;;;;4.18;2.30;;;;;;;11.93;100.00;101328.63;695583;28;1086;-43
2022/07/16 01:24:29;;;;;;;4.13;2.47;;;;;;;11.97;100.00;101318.16;697252;28;1336;-43
2022/07/16 01:24:51;;;;;;;5.47;2.53;;;;;;;11.99;100.00;101332.13;698147;28;1254;-44
2022/07/16 01:25:11;;;;;;;6.50;2.40;;;;;;;12.01;100.00;101320.75;694519;28;1552;-44
2022/07/16 01:25:32;;;;;;;3.83;2.37;;;;;;;12.02;100.00;101326.91;696393;28;1608;-42
2022/07/16 01:25:53;;;;;;;3.72;2.30;;;;;;;12.00;100.00;101318.16;693752;28;4398;-42
2022/07/16 01:26:13;;;;;;;3.67;2.50;;;;;;;11.94;100.00;101326.88;694985;28;1468;-42
2022/07/16 01:26:34;;;;;;;3.92;2.50;;;;;;;11.88;100.00;101329.44;694145;28;1357;-44
2022/07/16 01:26:54;;;;;;;5.83;2.50;;;;;;;11.86;100.00;101329.47;694072;28;1895;-43
2022/07/16 01:27:16;;;;;;;5.57;2.20;;;;;;;11.85;100.00;101335.59;694615;28;2184;-43
2022/07/16 01:27:38;;;;;;;4.88;2.20;;;;;;;11.84;100.00;101332.97;696767;28;1345;-44
2022/07/16 01:27:58;;;;;;;4.40;2.47;;;;;;;11.83;100.00;101331.22;696991;28;1987;-43
2022/07/16 01:28:20;;;;;;;5.38;2.80;;;;;;;11.81;100.00;101331.22;695684;28;1865;-43
2022/07/16 01:28:41;;;;;;;4.30;2.63;;;;;;;11.85;100.00;101334.69;696634;28;1309;-42
2022/07/16 01:29:02;;;;;;;4.70;2.42;;;;;;;11.89;100.00;101332.09;695451;28;4262;-44
2022/07/16 01:29:22;;;;;;;4.45;2.20;;;;;;;11.91;100.00;101335.59;693300;28;2272;-42
2022/07/16 01:29:43;;;;;;;4.53;2.50;;;;;;;11.89;100.00;101329.47;691664;28;1422;-42
2022/07/16 01:30:08;;;;;;;4.47;2.57;;;;;;;11.86;100.00;101337.31;690892;28;1524;-42
2022/07/16 01:30:28;;;;;;;5.70;2.50;;;;;;;11.83;100.00;101332.09;692506;28;1429;-45
2022/07/16 01:30:49;;;;;;;4.72;2.38;;;;;;;11.82;100.00;101334.72;694991;28;1502;-42
2022/07/16 01:31:10;;;;;;;5.10;2.55;;;;;;;11.83;100.00;101334.69;694386;28;1529;-44
2022/07/16 01:31:30;;;;;;;4.97;2.33;;;;;;;11.86;100.00;101336.47;696248;28;1824;-43
2022/07/16 01:31:51;;;;;;;4.77;2.50;;;;;;;11.91;100.00;101337.34;695785;28;4345;-43
2022/07/16 01:32:11;;;;;;;4.40;2.40;;;;;;;11.93;100.00;101335.59;694367;28;5188;-42
2022/07/16 01:32:31;;;;;;;5.47;2.30;;;;;;;11.96;100.00;101334.75;693520;28;1225;-43
2022/07/16 01:32:52;;;;;;;5.10;2.30;;;;;;;11.96;100.00;101337.38;693386;28;1859;-42
2022/07/16 01:33:20;;;;;;;3.65;2.10;;;;;;;12.00;100.00;101332.13;694428;28;1228;-43
2022/07/16 01:33:42;;;;;;;3.88;2.15;;;;;;;12.01;100.00;101339.09;697138;28;1361;-42
2022/07/16 01:34:41;;;;;;;3.60;2.38;;;;;;;12.05;100.00;101332.13;696616;28;1545;-42
2022/07/16 01:35:03;;;;;;;3.55;2.20;;;;;;;12.06;99.90;101333.88;696732;28;4243;-42
2022/07/16 01:35:23;;;;;;;3.83;2.30;;;;;;;12.06;99.64;101334.75;697663;28;1129;-43
2022/07/16 01:35:44;;;;;;;3.63;2.33;;;;;;;12.08;99.87;101334.75;697317;28;1364;-42
2022/07/16 01:36:07;;;;;;;4.83;2.50;;;;;;;12.08;99.79;101343.47;694314;28;1319;-43
2022/07/16 01:36:28;;;;;;;4.78;2.47;;;;;;;12.06;100.00;101331.28;694612;28;1374;-42
2022/07/16 01:36:55;;;;;;;5.03;2.67;;;;;;;12.04;100.00;101335.63;690427;28;1213;-43
2022/07/16 01:37:15;;;;;;;4.40;2.40;;;;;;;12.02;100.00;101335.63;690484;28;1806;-42
2022/07/16 01:37:36;;;;;;;4.95;2.60;;;;;;;11.98;100.00;101339.13;692512;28;1298;-43
2022/07/16 01:37:56;;;;;;;4.47;2.60;;;;;;;11.95;100.00;101339.13;694788;28;4454;-43
2022/07/16 01:38:17;;;;;;;4.87;2.50;;;;;;;11.91;100.00;101338.19;696580;28;1323;-43
2022/07/16 01:38:43;;;;;;;4.47;2.50;;;;;;;11.92;100.00;101341.69;697643;28;1474;-42
2022/07/16 01:39:04;;;;;;;4.32;2.60;;;;;;;11.96;100.00;101334.75;699427;28;1252;-44
2022/07/16 01:39:26;;;;;;;3.90;2.60;;;;;;;12.03;100.00;101339.09;699891;28;1052;-42
2022/07/16 01:39:47;;;;;;;4.63;2.60;;;;;;;12.08;100.00;101334.75;700926;28;1440;-44
2022/07/16 01:40:07;;;;;;;4.75;2.50;;;;;;;12.14;99.24;101337.34;696389;28;1910;-43
2022/07/16 01:40:28;;;;;;;5.03;2.73;;;;;;;12.14;100.00;101339.97;696813;28;1326;-42
2022/07/16 01:40:48;;;;;;;4.47;2.70;;;;;;;12.11;100.00;101337.34;696855;28;4313;-43
2022/07/16 01:41:09;;;;;;;4.83;2.70;;;;;;;12.06;100.00;101339.13;698028;28;1274;-42
2022/07/16 01:41:30;;;;;;;4.28;2.50;;;;;;;12.05;100.00;101342.63;696602;28;1105;-42
2022/07/16 01:41:52;;;;;;;4.83;2.60;;;;;;;12.05;100.00;101340.84;696321;28;1236;-42
2022/07/16 01:42:12;;;;;;;4.03;2.45;;;;;;;12.04;100.00;101344.34;699938;28;1375;-44
2022/07/16 01:42:33;;;;;;;4.28;2.45;;;;;;;12.05;100.00;101340.00;699975;28;1096;-43
2022/07/16 01:42:53;;;;;;;4.53;2.43;;;;;;;12.10;99.07;101338.22;699187;28;2156;-42